Time;durP1;ratioP1;P1;durP2;ratioP2;P2;SDS_P1;SDS_P2;PMS_P1;PMS_P2;Temp;Humidity;BMP_temperature;BMP_pressure;BME280_temperature;BME280_humidity;BME280_pressure;Samples;Min_cycle;Max_cycle;Signal;HPM_P1;HPM_P2
2021/06/29 00:00:21;;;;;;;8.98;6.10;;;21.30;99.90;;;;;;5091695;28;20032;-63
2021/06/29 00:02:57;;;;;;;6.78;6.03;;;21.30;99.90;;;;;;5090518;28;20473;-64
2021/06/29 00:05:23;;;;;;;6.30;5.78;;;21.40;99.90;;;;;;5090095;28;20035;-63
2021/06/29 00:07:48;;;;;;;6.82;5.47;;;21.20;99.90;;;;;;5089533;28;20130;-63
2021/06/29 00:10:14;;;;;;;5.93;5.32;;;21.30;99.90;;;;;;5090103;28;20024;-63
2021/06/29 00:12:40;;;;;;;6.50;5.90;;;21.20;99.90;;;;;;5090215;28;20054;-65
2021/06/29 00:15:06;;;;;;;8.38;5.68;;;21.30;99.90;;;;;;5089521;28;20475;-63
2021/06/29 00:17:32;;;;;;;5.78;5.28;;;21.40;99.90;;;;;;5091126;28;20034;-66
2021/06/29 00:19:57;;;;;;;7.93;4.88;;;21.40;99.90;;;;;;5089358;28;20028;-64
2021/06/29 00:22:23;;;;;;;6.65;5.05;;;21.50;99.90;;;;;;5089610;28;20414;-64
2021/06/29 00:24:49;;;;;;;5.47;5.07;;;21.50;99.90;;;;;;5089156;28;20088;-64
2021/06/29 00:27:15;;;;;;;5.43;4.65;;;21.40;99.90;;;;;;5089965;28;20069;-64
2021/06/29 00:29:40;;;;;;;9.05;5.50;;;21.40;99.90;;;;;;5089850;28;20043;-64
2021/06/29 00:32:06;;;;;;;9.55;4.68;;;21.50;99.90;;;;;;5088993;28;20024;-64
2021/06/29 00:34:32;;;;;;;4.55;4.00;;;21.60;99.90;;;;;;5090889;28;20120;-65
2021/06/29 00:36:58;;;;;;;6.13;4.57;;;21.60;99.90;;;;;;5089170;28;20444;-63
2021/06/29 00:39:24;;;;;;;5.90;4.63;;;21.50;99.90;;;;;;5089763;28;20035;-63
2021/06/29 00:41:50;;;;;;;4.22;3.80;;;21.50;99.90;;;;;;5090403;28;20028;-63
2021/06/29 00:44:23;;;;;;;4.53;3.75;;;21.50;99.90;;;;;;5089909;28;20055;-64
2021/06/29 00:46:49;;;;;;;5.93;4.70;;;21.60;99.90;;;;;;5089148;28;20051;-65
2021/06/29 00:49:16;;;;;;;5.20;4.45;;;21.50;99.90;;;;;;5091146;28;20105;-65
2021/06/29 00:51:42;;;;;;;6.45;4.50;;;21.60;99.90;;;;;;5089753;28;20043;-63
2021/06/29 00:54:09;;;;;;;4.47;4.03;;;21.60;99.90;;;;;;5088988;28;20032;-64
2021/06/29 00:56:37;;;;;;;5.78;4.53;;;21.60;99.90;;;;;;5089430;28;20021;-64
2021/06/29 00:59:03;;;;;;;5.60;4.43;;;21.60;99.90;;;;;;5091924;28;20445;-64
2021/06/29 01:01:29;;;;;;;6.80;3.95;;;21.50;99.90;;;;;;5094852;28;20103;-65
2021/06/29 01:03:54;;;;;;;4.65;4.25;;;21.40;99.90;;;;;;5092904;28;20119;-64
2021/06/29 01:06:20;;;;;;;5.95;5.35;;;21.30;99.90;;;;;;5095003;28;20043;-64
2021/06/29 01:08:47;;;;;;;5.53;5.03;;;21.20;99.90;;;;;;5092989;28;20142;-72
2021/06/29 01:11:13;;;;;;;5.30;4.80;;;21.20;99.90;;;;;;5094827;28;20035;-64
2021/06/29 01:13:42;;;;;;;4.95;4.53;;;21.10;99.90;;;;;;5077070;28;20465;-64
2021/06/29 01:16:08;;;;;;;7.50;4.78;;;21.10;99.90;;;;;;5092707;28;20132;-64
2021/06/29 01:18:35;;;;;;;6.93;4.68;;;21.20;99.90;;;;;;5094744;28;20024;-63
2021/06/29 01:21:02;;;;;;;6.00;5.30;;;21.30;99.90;;;;;;5092332;28;20477;-65
2021/06/29 01:23:29;;;;;;;8.00;4.90;;;21.30;99.90;;;;;;5094294;28;20036;-64
2021/06/29 01:26:13;;;;;;;5.05;4.57;;;21.30;99.90;;;;;;5094147;28;20329;-64
2021/06/29 01:28:54;;;;;;;6.13;5.05;;;21.40;99.90;;;;;;5095058;28;20441;-64
2021/06/29 01:31:20;;;;;;;6.22;5.70;;;21.40;99.90;;;;;;5093212;28;20024;-63
2021/06/29 01:33:46;;;;;;;5.53;5.03;;;21.50;99.90;;;;;;5093099;28;20067;-64
2021/06/29 01:36:21;;;;;;;5.30;4.80;;;21.50;99.90;;;;;;5093825;28;20059;-64
2021/06/29 01:38:48;;;;;;;6.63;5.10;;;21.50;99.90;;;;;;5092945;28;20027;-64
2021/06/29 01:41:21;;;;;;;5.90;5.27;;;21.50;99.90;;;;;;5093983;28;20515;-64
2021/06/29 01:43:57;;;;;;;8.48;5.30;;;21.60;99.90;;;;;;5093006;28;20216;-63
2021/06/29 01:46:28;;;;;;;5.68;5.15;;;21.50;99.90;;;;;;5094096;28;20468;-64
2021/06/29 01:48:54;;;;;;;6.20;5.50;;;21.40;99.90;;;;;;5092394;28;20044;-64
2021/06/29 01:51:22;;;;;;;7.07;5.45;;;21.40;99.90;;;;;;5092624;28;20089;-64
2021/06/29 01:53:52;;;;;;;8.38;5.95;;;21.40;99.90;;;;;;5092670;28;20031;-64
2021/06/29 01:56:23;;;;;;;6.93;5.33;;;21.40;99.90;;;;;;5092751;28;20111;-64
2021/06/29 01:58:53;;;;;;;6.00;5.28;;;21.40;99.90;;;;;;5092700;28;20162;-72
2021/06/29 02:01:20;;;;;;;9.18;5.05;;;21.30;99.90;;;;;;5094072;28;20027;-62
2021/06/29 02:03:46;;;;;;;6.00;5.05;;;21.30;99.90;;;;;;5092929;28;20474;-64
2021/06/29 02:06:12;;;;;;;8.57;5.43;;;21.20;99.90;;;;;;5091716;28;20024;-64
2021/06/29 02:08:37;;;;;;;5.80;4.75;;;21.20;99.90;;;;;;5092090;28;20047;-64
2021/06/29 02:11:03;;;;;;;6.75;6.10;;;21.20;99.90;;;;;;5092566;28;20078;-64
2021/06/29 02:13:29;;;;;;;6.45;4.93;;;21.20;99.90;;;;;;5093761;28;20051;-65
2021/06/29 02:15:55;;;;;;;7.20;5.50;;;21.20;99.90;;;;;;5091398;28;20031;-65
2021/06/29 02:18:22;;;;;;;5.15;4.65;;;21.30;99.90;;;;;;5093399;28;20362;-63
2021/06/29 02:20:49;;;;;;;6.07;5.22;;;21.20;99.90;;;;;;5087644;28;20053;-64
2021/06/29 02:23:15;;;;;;;6.72;5.88;;;21.20;99.90;;;;;;5054673;28;20066;-64
2021/06/29 02:25:41;;;;;;;5.80;5.30;;;21.20;99.90;;;;;;5055236;28;20031;-64
2021/06/29 02:28:07;;;;;;;6.22;5.63;;;21.10;99.90;;;;;;5054838;28;20021;-64
2021/06/29 02:30:32;;;;;;;7.63;5.15;;;20.90;99.90;;;;;;5073125;28;20389;-71
2021/06/29 02:32:58;;;;;;;6.97;4.95;;;20.90;99.90;;;;;;5072292;28;20063;-64
2021/06/29 02:35:24;;;;;;;6.03;4.15;;;20.80;99.90;;;;;;5054975;28;20064;-64
2021/06/29 02:37:49;;;;;;;7.15;4.82;;;20.90;99.90;;;;;;5054838;28;20120;-65
2021/06/29 02:40:16;;;;;;;7.63;5.15;;;21.00;99.90;;;;;;5054300;28;20027;-64
2021/06/29 02:42:41;;;;;;;5.10;4.43;;;21.00;99.90;;;;;;5072943;28;20085;-63
2021/06/29 02:45:08;;;;;;;4.90;4.50;;;21.00;99.90;;;;;;5072110;28;20032;-63
2021/06/29 02:47:35;;;;;;;4.32;3.95;;;21.20;99.90;;;;;;5054865;28;20402;-64
2021/06/29 02:50:03;;;;;;;5.45;4.03;;;21.10;99.90;;;;;;5054149;28;20020;-63
2021/06/29 02:52:28;;;;;;;4.57;4.18;;;21.10;99.90;;;;;;5072420;28;20032;-62
2021/06/29 02:54:54;;;;;;;6.40;4.18;;;21.00;99.90;;;;;;5054052;28;20135;-63
2021/06/29 02:57:20;;;;;;;8.80;4.70;;;20.90;99.90;;;;;;5072397;28;20104;-63
2021/06/29 02:59:45;;;;;;;6.40;4.47;;;20.80;99.90;;;;;;5054706;28;20029;-63
2021/06/29 03:02:11;;;;;;;5.13;4.63;;;20.70;99.90;;;;;;5053837;28;20064;-64
2021/06/29 03:04:36;;;;;;;6.22;4.40;;;20.60;99.90;;;;;;5054244;28;20037;-64
2021/06/29 03:07:02;;;;;;;4.28;3.80;;;20.60;99.90;;;;;;5071405;28;20104;-63
2021/06/29 03:09:28;;;;;;;5.15;3.55;;;20.40;99.90;;;;;;5054162;28;20362;-63
2021/06/29 03:11:54;;;;;;;5.93;3.92;;;20.40;99.90;;;;;;5072197;28;20028;-69
2021/06/29 03:14:19;;;;;;;3.83;3.53;;;20.40;99.90;;;;;;5054380;28;20074;-62
2021/06/29 03:16:45;;;;;;;6.25;3.78;;;20.40;99.90;;;;;;5072190;28;20470;-65
2021/06/29 03:19:11;;;;;;;6.10;3.92;;;20.30;99.90;;;;;;5071430;28;20111;-64
2021/06/29 03:21:36;;;;;;;4.63;3.67;;;20.50;99.90;;;;;;5071430;28;20079;-63
2021/06/29 03:24:03;;;;;;;3.50;3.20;;;20.40;99.90;;;;;;5052895;28;20059;-64
2021/06/29 03:26:28;;;;;;;4.18;3.60;;;20.30;99.90;;;;;;5053879;28;20024;-64
2021/06/29 03:28:54;;;;;;;5.22;3.60;;;20.30;99.90;;;;;;5053966;28;20202;-66
2021/06/29 03:31:20;;;;;;;6.88;3.65;;;20.20;99.90;;;;;;5053831;28;20162;-64
2021/06/29 03:33:46;;;;;;;4.22;3.58;;;20.20;99.90;;;;;;5054205;28;20145;-64
2021/06/29 03:36:12;;;;;;;5.10;3.72;;;20.20;99.90;;;;;;5053201;28;20486;-63
2021/06/29 03:38:38;;;;;;;6.43;4.38;;;20.30;99.90;;;;;;5053792;28;20084;-64
2021/06/29 03:41:04;;;;;;;6.65;4.25;;;20.20;99.90;;;;;;5053113;28;20389;-64
2021/06/29 03:43:34;;;;;;;5.93;4.57;;;20.30;99.90;;;;;;5071646;28;20033;-63
2021/06/29 03:46:00;;;;;;;4.45;4.05;;;20.20;99.90;;;;;;5052593;28;20354;-63
2021/06/29 03:48:25;;;;;;;4.90;4.40;;;20.10;99.90;;;;;;5053539;28;20028;-63
2021/06/29 03:50:51;;;;;;;9.95;5.13;;;20.10;99.90;;;;;;5053275;28;20032;-63
2021/06/29 03:53:17;;;;;;;4.85;4.35;;;20.10;99.90;;;;;;5052988;28;20029;-64
2021/06/29 03:55:42;;;;;;;6.80;4.28;;;20.10;99.90;;;;;;5053772;28;20467;-64
2021/06/29 03:58:08;;;;;;;8.75;4.65;;;20.10;99.90;;;;;;5070903;28;20378;-63
2021/06/29 04:00:34;;;;;;;5.57;4.20;;;20.00;99.90;;;;;;5036934;28;20437;-64
2021/06/29 04:03:00;;;;;;;6.00;3.95;;;20.10;99.90;;;;;;5053002;28;20032;-65
2021/06/29 04:05:25;;;;;;;4.70;4.20;;;20.10;99.90;;;;;;5071579;28;20158;-65
2021/06/29 04:07:51;;;;;;;6.63;4.47;;;20.20;99.90;;;;;;5053363;28;20039;-63
2021/06/29 04:10:17;;;;;;;7.25;4.50;;;20.10;99.90;;;;;;5052523;28;20322;-64
2021/06/29 04:12:42;;;;;;;8.95;4.78;;;20.10;99.90;;;;;;5071649;28;20032;-62
2021/06/29 04:15:10;;;;;;;5.10;4.47;;;20.00;99.90;;;;;;5052793;28;20119;-63
2021/06/29 04:17:36;;;;;;;9.32;4.60;;;20.00;99.90;;;;;;5071457;28;20024;-64
2021/06/29 04:20:04;;;;;;;9.38;4.10;;;20.10;99.90;;;;;;5052698;28;20170;-64
2021/06/29 04:22:30;;;;;;;9.68;4.75;;;20.10;99.90;;;;;;5070827;28;20057;-63
2021/06/29 04:24:57;;;;;;;5.07;3.92;;;19.90;99.90;;;;;;5071184;28;20024;-63
2021/06/29 04:27:23;;;;;;;5.75;4.72;;;20.00;99.90;;;;;;5052335;28;20028;-64
2021/06/29 04:29:49;;;;;;;9.52;5.65;;;19.90;99.90;;;;;;5070984;28;20063;-64
2021/06/29 04:32:16;;;;;;;7.93;4.03;;;20.00;99.90;;;;;;5052395;28;20381;-64
2021/06/29 04:34:42;;;;;;;5.20;4.00;;;20.00;99.90;;;;;;5052776;28;20029;-64
2021/06/29 04:37:07;;;;;;;6.50;3.97;;;20.10;99.90;;;;;;5052339;28;20029;-62
2021/06/29 04:39:33;;;;;;;5.07;4.28;;;20.10;99.90;;;;;;5052799;28;20017;-64
2021/06/29 04:41:59;;;;;;;3.80;3.33;;;19.90;99.90;;;;;;5070794;28;20035;-72
2021/06/29 04:44:25;;;;;;;6.90;3.97;;;19.90;99.90;;;;;;5052789;28;20024;-64
2021/06/29 04:46:52;;;;;;;6.10;3.53;;;20.10;99.90;;;;;;5053240;28;20086;-64
2021/06/29 04:49:20;;;;;;;4.95;3.40;;;20.10;99.90;;;;;;5052229;28;20138;-63
2021/06/29 04:51:46;;;;;;;6.60;3.83;;;20.10;99.90;;;;;;5053156;28;20036;-64
2021/06/29 04:54:11;;;;;;;5.80;3.83;;;20.00;99.90;;;;;;5071407;28;20346;-64
2021/06/29 04:56:37;;;;;;;7.63;3.83;;;20.00;99.90;;;;;;5053639;28;20060;-65
2021/06/29 04:59:03;;;;;;;7.78;3.72;;;20.00;99.90;;;;;;5053322;28;20056;-63
2021/06/29 05:01:30;;;;;;;6.18;3.97;;;19.90;99.90;;;;;;5053657;28;20481;-64
2021/06/29 05:03:55;;;;;;;11.07;4.72;;;19.80;99.90;;;;;;5053421;28;20028;-63
2021/06/29 05:06:21;;;;;;;7.97;3.60;;;19.90;99.90;;;;;;5052863;28;20165;-64
2021/06/29 05:08:47;;;;;;;5.35;3.25;;;20.00;99.90;;;;;;5053367;28;20028;-65
2021/06/29 05:11:13;;;;;;;4.28;3.75;;;20.20;99.90;;;;;;5052881;28;20048;-64
2021/06/29 05:13:39;;;;;;;7.13;3.00;;;20.10;99.90;;;;;;5048954;28;20103;-69
2021/06/29 05:16:05;;;;;;;4.05;3.40;;;20.20;99.90;;;;;;5034446;28;20029;-69
2021/06/29 05:18:31;;;;;;;7.40;3.60;;;20.40;99.90;;;;;;5050384;28;20391;-68
2021/06/29 05:20:57;;;;;;;12.73;3.47;;;20.50;99.90;;;;;;5049649;28;20059;-67
2021/06/29 05:23:23;;;;;;;2.30;2.10;;;20.50;99.90;;;;;;5031456;28;20119;-66
2021/06/29 05:25:49;;;;;;;2.92;2.20;;;21.30;99.90;;;;;;5031805;28;20063;-66
2021/06/29 05:28:22;;;;;;;3.30;2.50;;;21.70;99.90;;;;;;5048678;28;20017;-67
2021/06/29 05:30:49;;;;;;;4.30;2.30;;;22.00;99.90;;;;;;5050138;28;20052;-68
2021/06/29 05:33:15;;;;;;;5.32;3.40;;;22.10;99.90;;;;;;5030317;28;20104;-65
2021/06/29 05:35:41;;;;;;;2.95;2.63;;;22.00;99.90;;;;;;5031367;28;20029;-66
2021/06/29 05:38:07;;;;;;;3.88;2.92;;;22.00;99.90;;;;;;5048436;28;20037;-67
2021/06/29 05:40:34;;;;;;;5.57;2.78;;;22.10;99.90;;;;;;5030996;28;20061;-69
2021/06/29 05:43:00;;;;;;;2.58;2.10;;;22.10;99.90;;;;;;5030863;28;20120;-56
2021/06/29 05:45:25;;;;;;;3.13;2.42;;;22.50;99.90;;;;;;5048493;28;20029;-54
2021/06/29 05:47:52;;;;;;;4.88;2.35;;;22.60;99.90;;;;;;5033797;28;20029;-56
2021/06/29 05:50:18;;;;;;;6.07;2.67;;;22.70;99.90;;;;;;5051702;28;20028;-55
2021/06/29 05:52:45;;;;;;;4.68;2.33;;;22.60;99.90;;;;;;5014506;28;20059;-56
2021/06/29 05:55:11;;;;;;;4.25;2.42;;;22.40;99.90;;;;;;5051721;28;20032;-55
2021/06/29 05:57:37;;;;;;;7.15;2.30;;;22.50;99.90;;;;;;5052291;28;20021;-56
2021/06/29 06:00:09;;;;;;;2.45;2.10;;;22.50;99.90;;;;;;5033945;28;20029;-64
2021/06/29 06:02:34;;;;;;;8.60;2.45;;;22.60;99.90;;;;;;5051966;28;20442;-56
2021/06/29 06:05:00;;;;;;;3.60;2.72;;;22.60;99.90;;;;;;5034685;28;20577;-54
2021/06/29 06:07:26;;;;;;;6.88;3.90;;;22.50;99.90;;;;;;5032835;28;20489;-63
2021/06/29 06:09:52;;;;;;;3.50;2.60;;;22.60;99.90;;;;;;5043393;28;20020;-58
2021/06/29 06:12:18;;;;;;;6.50;2.95;;;22.60;99.90;;;;;;5052591;28;20032;-54
2021/06/29 06:14:43;;;;;;;6.97;3.88;;;22.80;99.90;;;;;;5071500;28;20028;-55
2021/06/29 06:17:09;;;;;;;4.05;3.30;;;22.60;99.90;;;;;;5052574;28;20384;-53
2021/06/29 06:19:35;;;;;;;5.47;3.40;;;22.50;99.90;;;;;;5053244;28;20123;-56
2021/06/29 06:22:00;;;;;;;5.78;2.92;;;22.10;99.90;;;;;;5069884;28;20396;-53
2021/06/29 06:24:26;;;;;;;4.10;3.08;;;22.00;99.90;;;;;;5069351;28;20450;-54
2021/06/29 06:26:52;;;;;;;4.63;3.50;;;21.80;99.90;;;;;;5096562;28;20333;-54
2021/06/29 06:29:17;;;;;;;7.18;3.78;;;21.90;99.90;;;;;;5110366;28;20035;-54
2021/06/29 06:31:43;;;;;;;6.85;3.22;;;22.10;99.90;;;;;;5110785;28;20032;-58
2021/06/29 06:34:09;;;;;;;5.55;3.33;;;22.30;99.90;;;;;;5109754;28;20024;-56
2021/06/29 06:36:35;;;;;;;4.45;3.88;;;22.40;99.90;;;;;;5110012;28;20171;-54
2021/06/29 06:39:02;;;;;;;7.85;3.40;;;22.50;99.90;;;;;;5110143;28;20038;-53
2021/06/29 06:41:28;;;;;;;3.65;3.00;;;22.40;99.90;;;;;;5109351;28;20099;-56
2021/06/29 06:43:53;;;;;;;6.07;3.17;;;22.50;99.90;;;;;;5110282;28;20035;-54
2021/06/29 06:46:19;;;;;;;6.32;2.70;;;22.60;99.90;;;;;;5109710;28;20110;-56
2021/06/29 06:48:46;;;;;;;5.80;3.28;;;22.90;99.90;;;;;;5110128;28;20039;-59
2021/06/29 06:51:12;;;;;;;7.03;4.45;;;22.80;99.90;;;;;;5103206;27;20064;-53
2021/06/29 06:53:37;;;;;;;3.60;3.15;;;22.50;99.90;;;;;;5080066;28;20426;-55
2021/06/29 06:56:04;;;;;;;7.25;3.78;;;22.60;99.90;;;;;;5070828;28;20461;-65
2021/06/29 06:58:29;;;;;;;6.43;3.05;;;22.90;99.90;;;;;;5069476;28;20124;-55
2021/06/29 07:00:55;;;;;;;7.28;4.38;;;22.80;99.90;;;;;;5079193;28;20099;-55
2021/06/29 07:03:21;;;;;;;5.97;4.75;;;22.90;99.90;;;;;;5076801;28;20044;-55
2021/06/29 07:05:48;;;;;;;4.30;3.47;;;23.00;99.90;;;;;;5072975;28;20406;-59
2021/06/29 07:08:14;;;;;;;10.68;4.03;;;23.10;99.90;;;;;;5071251;28;20095;-54
2021/06/29 07:10:39;;;;;;;5.20;3.38;;;23.20;99.90;;;;;;5078823;28;20119;-56
2021/06/29 07:13:05;;;;;;;8.40;4.25;;;23.40;99.90;;;;;;5074603;28;20029;-66
2021/06/29 07:15:33;;;;;;;7.85;3.65;;;23.40;99.90;;;;;;5068733;28;20028;-55
2021/06/29 07:17:59;;;;;;;4.95;3.97;;;23.30;99.90;;;;;;5068950;28;20059;-56
2021/06/29 07:20:26;;;;;;;6.95;3.90;;;23.30;99.90;;;;;;5066274;28;20563;-65
2021/06/29 07:22:52;;;;;;;4.63;3.55;;;23.50;99.90;;;;;;5031412;28;20114;-56
2021/06/29 07:25:18;;;;;;;5.10;3.40;;;23.70;99.90;;;;;;5049501;28;20086;-58
2021/06/29 07:27:43;;;;;;;5.28;3.78;;;23.70;99.90;;;;;;5049911;28;20037;-61
2021/06/29 07:30:10;;;;;;;8.20;3.40;;;23.90;99.90;;;;;;5031153;28;20025;-57
2021/06/29 07:32:41;;;;;;;5.55;3.17;;;24.00;99.90;;;;;;5031874;28;20435;-56
2021/06/29 07:35:07;;;;;;;9.98;3.80;;;24.20;99.90;;;;;;5051921;28;20025;-65
2021/06/29 07:37:33;;;;;;;8.70;3.67;;;24.40;99.90;;;;;;5031200;28;20033;-56
2021/06/29 07:39:58;;;;;;;8.23;2.90;;;24.50;99.90;;;;;;5031438;28;20139;-54
2021/06/29 07:42:24;;;;;;;4.85;3.30;;;24.60;99.90;;;;;;5048578;28;20039;-55
2021/06/29 07:44:50;;;;;;;5.22;3.28;;;24.70;99.90;;;;;;5048189;28;20028;-56
2021/06/29 07:47:15;;;;;;;3.78;3.42;;;24.80;99.90;;;;;;5053868;28;20408;-58
2021/06/29 07:49:41;;;;;;;6.60;3.47;;;24.60;99.90;;;;;;5053553;28;20021;-68
2021/06/29 07:52:07;;;;;;;10.10;3.90;;;24.00;99.90;;;;;;5052560;28;20388;-68
2021/06/29 07:54:33;;;;;;;5.80;4.40;;;23.70;99.90;;;;;;5052414;28;20429;-67
2021/06/29 07:56:58;;;;;;;7.40;4.43;;;22.90;99.90;;;;;;5070105;28;20591;-69
2021/06/29 07:59:24;;;;;;;8.35;5.47;;;22.70;99.90;;;;;;5052589;28;20221;-68
2021/06/29 08:01:50;;;;;;;6.40;3.60;;;22.60;99.90;;;;;;5052191;28;20038;-69
2021/06/29 08:04:15;;;;;;;4.07;3.67;;;22.60;99.90;;;;;;5070875;28;20025;-70
2021/06/29 08:06:41;;;;;;;6.40;4.28;;;22.80;99.90;;;;;;5054035;28;20024;-69
2021/06/29 08:09:07;;;;;;;4.82;4.00;;;23.00;99.90;;;;;;5053026;28;20025;-70
2021/06/29 08:11:34;;;;;;;6.00;4.20;;;23.30;99.90;;;;;;5053528;28;20032;-69
2021/06/29 08:14:00;;;;;;;6.20;3.60;;;23.50;99.90;;;;;;5072010;28;20016;-69
2021/06/29 08:16:26;;;;;;;4.25;3.85;;;23.40;99.90;;;;;;5071235;28;20584;-67
2021/06/29 08:18:52;;;;;;;6.80;4.18;;;23.70;99.90;;;;;;5071586;28;20040;-68
2021/06/29 08:21:18;;;;;;;4.82;3.33;;;24.10;99.90;;;;;;5068040;28;20108;-69
2021/06/29 08:23:44;;;;;;;10.65;4.18;;;23.90;99.90;;;;;;5090217;28;20123;-69
2021/06/29 08:26:10;;;;;;;6.60;3.80;;;24.00;99.90;;;;;;5089372;28;20477;-70
2021/06/29 08:28:36;;;;;;;5.88;3.80;;;24.00;99.90;;;;;;5090619;28;20353;-69
2021/06/29 08:31:04;;;;;;;7.15;5.00;;;24.00;99.90;;;;;;5090541;28;20062;-68
2021/06/29 08:33:30;;;;;;;5.85;4.03;;;23.80;99.90;;;;;;5089300;28;20031;-71
2021/06/29 08:35:56;;;;;;;5.00;4.13;;;23.70;99.90;;;;;;5090180;28;20074;-69
2021/06/29 08:38:22;;;;;;;6.18;3.17;;;23.80;99.90;;;;;;5089656;28;20442;-68
2021/06/29 08:40:48;;;;;;;4.60;3.47;;;23.80;99.90;;;;;;5089874;28;20028;-69
2021/06/29 08:43:15;;;;;;;6.50;3.50;;;24.10;99.90;;;;;;5089567;28;20036;-69
2021/06/29 08:45:42;;;;;;;6.38;2.90;;;24.40;99.90;;;;;;5091859;28;20072;-68
2021/06/29 08:48:08;;;;;;;8.00;4.65;;;24.40;99.90;;;;;;5092149;28;20036;-76
2021/06/29 08:50:34;;;;;;;7.70;3.80;;;24.20;99.90;;;;;;5091832;28;20099;-69
2021/06/29 08:53:02;;;;;;;4.35;3.05;;;24.30;99.90;;;;;;5089507;28;20024;-69
2021/06/29 08:55:32;;;;;;;3.70;2.65;;;24.80;99.90;;;;;;5088897;28;20632;-69
2021/06/29 08:57:58;;;;;;;2.60;2.40;;;25.40;99.90;;;;;;5089345;28;20445;-70
2021/06/29 09:00:24;;;;;;;7.72;3.50;;;25.70;99.90;;;;;;5089843;28;20265;-69
2021/06/29 09:02:50;;;;;;;3.35;3.05;;;25.50;99.90;;;;;;5089096;28;20038;-69
2021/06/29 09:05:27;;;;;;;5.90;3.78;;;25.40;99.90;;;;;;5089840;28;20111;-68
2021/06/29 09:08:11;;;;;;;4.72;3.35;;;25.30;99.90;;;;;;5090644;28;20043;-69
2021/06/29 09:10:39;;;;;;;6.95;3.03;;;25.50;99.90;;;;;;5089299;28;20073;-69
2021/06/29 09:13:06;;;;;;;3.72;3.20;;;25.50;99.90;;;;;;5088981;28;20024;-69
2021/06/29 09:15:38;;;;;;;7.75;3.58;;;25.40;99.90;;;;;;5088995;28;20537;-69
2021/06/29 09:18:04;;;;;;;3.25;2.83;;;25.10;99.90;;;;;;5089482;28;20028;-70
2021/06/29 09:20:36;;;;;;;5.00;2.92;;;25.30;99.90;;;;;;5086536;28;20056;-69
2021/06/29 09:23:14;;;;;;;4.10;2.75;;;25.40;99.90;;;;;;5074557;28;20058;-69
2021/06/29 09:25:42;;;;;;;3.85;2.05;;;25.20;99.90;;;;;;5056524;28;20075;-68
2021/06/29 09:28:12;;;;;;;8.30;3.40;;;25.10;99.90;;;;;;5055950;28;20020;-68
2021/06/29 09:30:46;;;;;;;3.80;3.35;;;25.20;99.80;;;;;;5074293;28;20127;-69
2021/06/29 09:33:22;;;;;;;4.40;2.80;;;24.90;99.90;;;;;;5055698;28;20032;-69
2021/06/29 09:35:55;;;;;;;3.17;2.60;;;24.70;99.90;;;;;;5055930;28;20081;-70
2021/06/29 09:38:32;;;;;;;3.45;2.97;;;25.20;99.90;;;;;;5056250;28;20030;-69
2021/06/29 09:41:05;;;;;;;5.25;2.72;;;25.40;99.90;;;;;;5056402;28;20082;-68
2021/06/29 09:43:40;;;;;;;4.80;2.40;;;25.80;99.70;;;;;;5055273;28;20507;-67
2021/06/29 09:46:08;;;;;;;4.03;2.92;;;26.00;98.90;;;;;;5055350;28;20028;-68
2021/06/29 09:48:46;;;;;;;3.10;2.72;;;26.00;98.90;;;;;;5054531;28;20028;-69
2021/06/29 09:51:28;;;;;;;3.97;2.75;;;26.20;98.30;;;;;;5073048;28;20036;-70
2021/06/29 09:53:56;;;;;;;3.92;2.33;;;26.30;98.60;;;;;;5054970;28;20096;-69
2021/06/29 09:56:38;;;;;;;8.43;2.80;;;26.30;98.70;;;;;;5054808;28;20085;-68
2021/06/29 09:59:11;;;;;;;5.57;2.97;;;26.40;98.10;;;;;;5055186;28;20051;-68
2021/06/29 10:01:37;;;;;;;7.85;2.65;;;26.20;98.50;;;;;;5054390;28;20127;-68
2021/06/29 10:04:04;;;;;;;5.28;2.80;;;26.20;98.20;;;;;;5055129;28;20021;-71
2021/06/29 10:06:32;;;;;;;11.88;3.25;;;25.90;98.50;;;;;;5053645;28;20036;-69
2021/06/29 10:09:09;;;;;;;3.15;2.50;;;25.90;98.30;;;;;;5072411;28;20051;-69
2021/06/29 10:11:37;;;;;;;3.63;2.30;;;26.30;98.30;;;;;;5072346;28;20395;-69
2021/06/29 10:14:08;;;;;;;3.15;2.72;;;26.90;97.70;;;;;;5055024;28;20031;-69
2021/06/29 10:16:42;;;;;;;7.47;3.08;;;27.50;97.60;;;;;;5072744;28;20031;-69
2021/06/29 10:21:38;;;;;;;2.63;2.42;;;26.80;96.90;;;;;;5072328;28;20432;-71
2021/06/29 10:24:07;;;;;;;3.47;2.33;;;27.40;97.20;;;;;;5055059;28;20032;-68
2021/06/29 10:26:35;;;;;;;4.03;1.90;;;27.40;96.20;;;;;;5072564;28;20024;-69
2021/06/29 10:29:03;;;;;;;3.42;2.40;;;27.70;96.60;;;;;;5072995;28;20472;-67
2021/06/29 10:31:34;;;;;;;3.63;2.10;;;28.20;95.80;;;;;;5053483;28;20028;-69
2021/06/29 10:34:03;;;;;;;3.17;2.38;;;28.80;95.20;;;;;;5054912;28;20359;-69
2021/06/29 10:36:31;;;;;;;3.72;2.20;;;28.80;93.70;;;;;;5053903;28;20032;-69
2021/06/29 10:38:58;;;;;;;4.38;2.20;;;29.00;94.10;;;;;;5072800;28;20029;-68
2021/06/29 10:41:37;;;;;;;3.83;2.03;;;29.20;93.60;;;;;;5054073;28;20126;-70
2021/06/29 10:44:19;;;;;;;4.95;2.05;;;29.40;93.10;;;;;;5072614;28;20059;-68
2021/06/29 10:46:53;;;;;;;5.55;2.85;;;29.70;93.30;;;;;;5054557;28;20024;-70
2021/06/29 10:49:46;;;;;;;5.20;2.00;;;30.30;93.10;;;;;;5053393;28;20066;-70
2021/06/29 10:52:24;;;;;;;3.85;2.35;;;29.70;92.20;;;;;;5072514;28;20090;-71
2021/06/29 10:54:58;;;;;;;2.25;2.03;;;29.70;91.90;;;;;;5053897;28;20104;-71
2021/06/29 10:57:36;;;;;;;2.80;2.30;;;29.50;91.10;;;;;;5071479;28;20478;-70
2021/06/29 11:00:17;;;;;;;6.50;2.67;;;29.70;91.50;;;;;;5072069;28;20055;-69
2021/06/29 11:03:00;;;;;;;3.40;2.60;;;28.90;91.90;;;;;;5054691;28;20033;-71
2021/06/29 11:05:40;;;;;;;2.58;2.38;;;28.00;93.00;;;;;;5053828;28;20036;-69
2021/06/29 11:08:16;;;;;;;2.10;1.95;;;28.10;93.10;;;;;;5054091;28;20028;-68
2021/06/29 11:10:48;;;;;;;2.67;2.45;;;28.20;93.00;;;;;;5054332;28;20076;-70
2021/06/29 11:13:16;;;;;;;4.22;2.65;;;28.80;91.90;;;;;;5053795;28;20032;-70
2021/06/29 11:15:51;;;;;;;3.33;3.10;;;28.60;92.10;;;;;;5053812;28;20052;-68
2021/06/29 11:18:19;;;;;;;4.30;3.10;;;28.00;92.90;;;;;;5053448;28;20347;-75
2021/06/29 11:20:53;;;;;;;5.80;3.17;;;28.00;93.30;;;;;;5071710;28;20149;-69
2021/06/29 11:23:32;;;;;;;2.78;2.50;;;28.70;93.10;;;;;;5070720;28;20370;-70
2021/06/29 11:26:14;;;;;;;3.03;2.45;;;29.20;92.90;;;;;;5071680;28;20032;-69
2021/06/29 11:29:04;;;;;;;3.55;2.65;;;29.20;92.20;;;;;;5052880;28;20441;-69
2021/06/29 11:31:31;;;;;;;2.55;2.35;;;29.00;92.40;;;;;;5039868;28;20040;-69
2021/06/29 11:34:03;;;;;;;7.82;2.75;;;29.40;92.60;;;;;;5071851;28;20036;-69
2021/06/29 11:36:29;;;;;;;4.47;2.60;;;29.40;91.80;;;;;;5052788;28;20035;-69
2021/06/29 11:39:22;;;;;;;3.72;3.13;;;29.20;90.90;;;;;;5053452;28;20024;-69
2021/06/29 11:42:09;;;;;;;5.75;2.60;;;28.90;91.50;;;;;;5053418;28;20119;-69
2021/06/29 11:44:39;;;;;;;3.67;2.53;;;29.00;91.20;;;;;;5069847;28;20165;-69
2021/06/29 11:47:10;;;;;;;3.35;3.00;;;29.50;91.20;;;;;;5053549;28;20020;-69
2021/06/29 11:50:00;;;;;;;4.10;2.30;;;29.50;90.20;;;;;;5070917;28;20430;-69
2021/06/29 11:52:30;;;;;;;3.87;2.17;;;29.40;90.30;;;;;;5052815;28;20035;-70
2021/06/29 11:55:00;;;;;;;3.20;1.90;;;29.70;90.50;;;;;;5053309;28;20663;-69
2021/06/29 11:57:27;;;;;;;4.03;2.80;;;30.40;90.40;;;;;;5052824;28;20034;-69
2021/06/29 11:59:59;;;;;;;3.45;2.47;;;30.40;90.00;;;;;;5054135;28;20029;-71
2021/06/29 12:02:30;;;;;;;2.65;2.05;;;30.10;88.50;;;;;;5052707;28;20028;-70
2021/06/29 12:05:05;;;;;;;2.53;2.15;;;29.30;90.40;;;;;;5052973;28;20098;-69
2021/06/29 12:07:40;;;;;;;2.80;2.13;;;29.20;89.50;;;;;;5052351;28;20370;-70
2021/06/29 12:10:10;;;;;;;6.40;2.40;;;29.20;87.70;;;;;;5070852;28;20449;-69
2021/06/29 12:12:37;;;;;;;2.30;2.10;;;29.20;89.30;;;;;;5052135;28;20055;-70
2021/06/29 12:15:15;;;;;;;5.70;3.25;;;28.80;90.00;;;;;;5053478;28;20033;-70
2021/06/29 12:17:49;;;;;;;3.47;2.25;;;29.10;90.10;;;;;;5054082;28;20029;-70
2021/06/29 12:20:17;;;;;;;3.10;2.20;;;29.80;89.20;;;;;;5071790;28;20090;-71
2021/06/29 12:22:44;;;;;;;2.30;2.10;;;30.20;88.60;;;;;;5052802;28;20052;-69
2021/06/29 12:25:22;;;;;;;4.38;2.28;;;30.60;85.70;;;;;;5053281;28;20032;-69
2021/06/29 12:27:57;;;;;;;2.15;1.77;;;29.90;85.60;;;;;;5053260;28;20169;-69
2021/06/29 12:30:38;;;;;;;4.15;1.88;;;29.90;85.30;;;;;;5052509;28;20036;-69
2021/06/29 12:33:34;;;;;;;2.72;1.70;;;29.70;85.10;;;;;;5053475;28;20039;-70
2021/06/29 12:36:02;;;;;;;3.85;2.03;;;30.30;85.50;;;;;;5051954;28;20125;-69
2021/06/29 12:38:49;;;;;;;2.10;1.70;;;30.70;84.40;;;;;;5054071;28;20216;-70
2021/06/29 12:41:25;;;;;;;3.83;1.50;;;30.20;82.40;;;;;;5054076;28;20090;-70
2021/06/29 12:43:55;;;;;;;5.47;1.45;;;30.70;79.50;;;;;;5053125;28;20043;-70
2021/06/29 12:46:28;;;;;;;2.28;1.38;;;31.30;78.70;;;;;;5053093;28;20092;-69
2021/06/29 12:48:56;;;;;;;4.03;1.67;;;30.70;79.50;;;;;;5071217;28;20469;-70
2021/06/29 12:51:23;;;;;;;3.47;1.77;;;31.10;80.00;;;;;;5071457;28;20548;-77
2021/06/29 12:53:58;;;;;;;2.92;2.17;;;31.30;79.60;;;;;;5053847;28;20033;-69